createdAt,value
2023-01-13T00:00:05.247Z,45.13
2023-01-13T00:02:35.244Z,41.93
2023-01-13T00:04:57.984Z,43.33
2023-01-13T00:07:20.757Z,42.33
2023-01-13T00:09:50.686Z,50.42
2023-01-13T00:12:13.425Z,47.47
2023-01-13T00:14:36.564Z,45.87
2023-01-13T00:16:59.055Z,50.30
2023-01-13T00:19:22.064Z,48.70
2023-01-13T00:21:44.591Z,48.53
2023-01-13T00:24:07.180Z,44.22
2023-01-13T00:26:35.816Z,45.00
2023-01-13T00:28:59.096Z,44.33
2023-01-13T00:31:21.789Z,46.10
2023-01-13T00:33:44.942Z,42.80
2023-01-13T00:36:09.134Z,42.60
2023-01-13T00:38:33.226Z,40.40
2023-01-13T00:41:00.800Z,43.83
2023-01-13T00:43:23.387Z,41.97
2023-01-13T00:45:46.000Z,41.35
2023-01-13T00:48:08.498Z,46.80
2023-01-13T00:50:31.159Z,41.70
2023-01-13T00:52:53.630Z,40.72
2023-01-13T00:55:16.304Z,43.58
2023-01-13T00:57:40.165Z,41.05
2023-01-13T01:00:03.878Z,43.10
2023-01-13T01:02:47.359Z,39.63
2023-01-13T01:05:11.276Z,41.55
2023-01-13T01:07:33.868Z,92.43
2023-01-13T01:09:57.409Z,84.47
2023-01-13T01:12:20.114Z,56.70
2023-01-13T01:14:42.828Z,52.50
2023-01-13T01:17:13.039Z,69.60
2023-01-13T01:19:38.756Z,67.60
2023-01-13T01:22:01.285Z,45.28
2023-01-13T01:24:23.975Z,45.25
2023-01-13T01:26:46.648Z,45.87
2023-01-13T01:29:13.598Z,43.13
2023-01-13T01:31:36.136Z,44.35
2023-01-13T01:33:59.923Z,39.13
2023-01-13T01:36:26.157Z,40.63
2023-01-13T01:38:49.914Z,41.83
2023-01-13T01:41:15.971Z,40.40
2023-01-13T01:44:00.118Z,42.90
2023-01-13T01:46:22.801Z,41.08
2023-01-13T01:48:45.988Z,44.72
2023-01-13T01:51:12.482Z,39.17
2023-01-13T01:53:35.291Z,40.60
2023-01-13T01:55:59.589Z,38.38
2023-01-13T01:58:28.158Z,39.90
2023-01-13T02:00:50.886Z,38.55
2023-01-13T02:03:15.278Z,36.53
2023-01-13T02:05:39.120Z,80.68
2023-01-13T02:08:03.078Z,199.65
2023-01-13T02:10:27.960Z,142.20
2023-01-13T02:12:51.358Z,100.95
2023-01-13T02:15:22.661Z,68.90
2023-01-13T02:18:17.485Z,50.00
2023-01-13T02:20:46.554Z,59.20
2023-01-13T02:24:08.654Z,50.45
2023-01-13T02:26:36.771Z,57.05
2023-01-13T02:29:56.001Z,65.93
2023-01-13T02:32:27.660Z,56.03
2023-01-13T02:34:58.400Z,40.92
2023-01-13T02:37:28.859Z,40.70
2023-01-13T02:40:08.775Z,42.38
2023-01-13T02:42:52.989Z,43.10
2023-01-13T02:45:18.741Z,43.58
2023-01-13T02:47:44.188Z,43.10
2023-01-13T02:50:12.567Z,41.05
2023-01-13T02:52:40.815Z,39.92
2023-01-13T02:55:17.593Z,38.07
2023-01-13T02:57:42.055Z,39.72
2023-01-13T03:00:07.693Z,38.75
2023-01-13T03:02:31.016Z,41.90
2023-01-13T03:04:57.752Z,37.63
2023-01-13T03:07:29.658Z,40.80
2023-01-13T03:10:02.185Z,35.40
2023-01-13T03:12:58.733Z,36.53
2023-01-13T03:15:42.804Z,38.13
2023-01-13T03:18:20.531Z,41.00
2023-01-13T03:20:54.619Z,38.07
2023-01-13T03:23:30.975Z,42.10
2023-01-13T03:26:45.460Z,37.63
2023-01-13T03:29:17.170Z,42.83
2023-01-13T03:31:47.977Z,43.35
2023-01-13T03:34:16.043Z,41.30
2023-01-13T03:36:41.749Z,41.72
2023-01-13T03:39:11.017Z,39.10
2023-01-13T03:41:41.483Z,40.08
2023-01-13T03:44:24.393Z,44.35
2023-01-13T03:47:08.805Z,41.50
2023-01-13T03:49:57.361Z,41.15
2023-01-13T03:52:44.563Z,41.25
2023-01-13T03:55:12.590Z,42.15
2023-01-13T03:57:41.456Z,40.20
2023-01-13T04:00:09.624Z,41.60
2023-01-13T04:02:47.903Z,38.38
2023-01-13T04:05:10.970Z,38.90
2023-01-13T04:07:46.521Z,36.25
2023-01-13T04:10:11.780Z,40.97
2023-01-13T04:13:02.799Z,39.80
2023-01-13T04:15:28.181Z,37.63
2023-01-13T04:17:52.123Z,38.85
2023-01-13T04:20:14.992Z,39.55
2023-01-13T04:22:37.536Z,39.70
2023-01-13T04:25:00.127Z,44.13
2023-01-13T04:27:22.610Z,42.00
2023-01-13T04:29:47.460Z,50.90
2023-01-13T04:32:10.018Z,45.83
2023-01-13T04:34:32.765Z,50.25
2023-01-13T04:36:55.424Z,49.33
2023-01-13T04:39:18.128Z,47.63
2023-01-13T04:41:58.952Z,41.50
2023-01-13T04:44:21.637Z,40.50
2023-01-13T04:46:44.543Z,40.20
2023-01-13T04:49:07.084Z,38.07
2023-01-13T04:51:29.652Z,35.60
2023-01-13T04:53:52.518Z,39.53
2023-01-13T04:56:15.127Z,37.63
2023-01-13T04:58:37.996Z,38.28
2023-01-13T05:01:01.178Z,42.00
2023-01-13T05:03:24.491Z,38.22
2023-01-13T05:05:51.376Z,45.72
2023-01-13T05:08:14.921Z,49.88
2023-01-13T05:10:37.579Z,48.25
2023-01-13T05:13:19.046Z,45.40
2023-01-13T05:16:01.170Z,35.75
2023-01-13T05:18:23.929Z,36.95
2023-01-13T05:20:46.859Z,40.05
2023-01-13T05:23:28.286Z,41.20
2023-01-13T05:25:50.972Z,38.10
2023-01-13T05:28:13.628Z,47.33
2023-01-13T05:30:39.240Z,51.70
2023-01-13T05:33:01.903Z,46.28
2023-01-13T05:35:24.982Z,45.60
2023-01-13T05:37:47.648Z,42.57
2023-01-13T05:40:31.035Z,47.33
2023-01-13T05:43:25.937Z,44.75
2023-01-13T05:45:51.752Z,42.35
2023-01-13T05:48:15.133Z,45.53
2023-01-13T05:50:38.375Z,44.00
2023-01-13T05:53:00.952Z,48.03
2023-01-13T05:55:23.585Z,42.40
2023-01-13T05:57:46.326Z,43.45
2023-01-13T06:00:09.490Z,45.15
2023-01-13T06:02:35.353Z,49.50
2023-01-13T06:04:58.031Z,43.45
2023-01-13T06:07:20.625Z,49.80
2023-01-13T06:09:45.303Z,49.03
2023-01-13T06:12:12.990Z,46.67
2023-01-13T06:14:41.698Z,45.13
2023-01-13T06:17:04.335Z,43.67
2023-01-13T06:19:27.516Z,47.70
2023-01-13T06:21:50.608Z,40.92
2023-01-13T06:24:13.221Z,42.03
2023-01-13T06:26:38.942Z,44.33
2023-01-13T06:29:01.613Z,43.92
2023-01-13T06:31:25.662Z,48.58
2023-01-13T06:33:53.530Z,48.30
2023-01-13T06:36:26.742Z,54.92
2023-01-13T06:38:52.328Z,46.80
2023-01-13T06:41:15.635Z,48.08
2023-01-13T06:43:40.659Z,47.30
2023-01-13T06:46:03.649Z,46.25
2023-01-13T06:48:33.090Z,44.40
2023-01-13T06:50:56.037Z,42.57
2023-01-13T06:53:19.812Z,44.92
2023-01-13T06:55:42.619Z,41.00
2023-01-13T06:58:06.123Z,43.33
2023-01-13T07:00:29.047Z,39.95
2023-01-13T07:02:52.115Z,39.43
2023-01-13T07:05:16.105Z,40.90
2023-01-13T07:07:39.416Z,39.10
2023-01-13T07:10:02.622Z,37.28
2023-01-13T07:12:25.728Z,37.13
2023-01-13T07:15:07.017Z,38.03
2023-01-13T07:17:29.756Z,34.53
2023-01-13T07:19:55.049Z,35.65
2023-01-13T07:22:17.904Z,37.15
2023-01-13T07:24:40.643Z,34.63
2023-01-13T07:27:03.333Z,37.40
2023-01-13T07:29:26.213Z,38.85
2023-01-13T07:31:50.204Z,45.45
2023-01-13T07:34:13.144Z,46.72
2023-01-13T07:36:36.258Z,45.22
2023-01-13T07:38:58.886Z,37.33
2023-01-13T07:41:40.175Z,34.13
2023-01-13T07:44:06.209Z,31.23
2023-01-13T07:46:28.904Z,34.22
2023-01-13T07:48:52.189Z,30.05
2023-01-13T07:51:15.187Z,30.17
2023-01-13T07:53:39.380Z,33.28
2023-01-13T07:56:04.183Z,30.42
2023-01-13T07:58:27.792Z,28.45
2023-01-13T08:00:50.533Z,26.92
2023-01-13T08:03:13.230Z,26.67
2023-01-13T08:05:36.375Z,27.42
2023-01-13T08:07:59.308Z,27.38
2023-01-13T08:10:22.325Z,27.10
2023-01-13T08:13:04.375Z,26.02
2023-01-13T08:15:27.121Z,26.17
2023-01-13T08:17:49.761Z,25.80
2023-01-13T08:20:13.433Z,26.13
2023-01-13T08:22:36.264Z,22.95
2023-01-13T08:24:59.945Z,28.05
2023-01-13T08:27:22.723Z,25.63
2023-01-13T08:29:45.938Z,26.90
2023-01-13T08:32:08.696Z,24.58
2023-01-13T08:34:31.411Z,25.90
2023-01-13T08:38:10.325Z,27.50
2023-01-13T08:40:33.548Z,26.13
2023-01-13T08:42:57.131Z,24.65
2023-01-13T08:45:19.829Z,26.75
2023-01-13T08:47:42.820Z,25.23
2023-01-13T08:50:06.969Z,26.42
2023-01-13T08:52:31.080Z,25.27
2023-01-13T08:54:53.800Z,25.83
2023-01-13T08:57:17.217Z,26.45
2023-01-13T08:59:40.081Z,25.25
2023-01-13T09:02:04.334Z,25.60
2023-01-13T09:04:29.108Z,27.80
2023-01-13T09:06:52.377Z,27.98
2023-01-13T09:09:16.064Z,28.45
2023-01-13T09:12:01.184Z,29.35
2023-01-13T09:14:25.863Z,27.27
2023-01-13T09:16:48.633Z,26.07
2023-01-13T09:19:11.407Z,30.23
2023-01-13T09:21:34.258Z,34.75
2023-01-13T09:23:57.056Z,39.40
2023-01-13T09:26:21.756Z,34.95
2023-01-13T09:28:44.538Z,36.87
2023-01-13T09:31:07.251Z,36.25
2023-01-13T09:33:48.968Z,39.40
2023-01-13T09:36:11.639Z,42.20
2023-01-13T09:38:34.471Z,46.33
2023-01-13T09:40:57.333Z,42.50
2023-01-13T09:43:52.531Z,45.97
2023-01-13T09:46:40.030Z,46.10
2023-01-13T09:49:03.906Z,39.85
2023-01-13T09:51:36.249Z,47.05
2023-01-13T09:54:32.306Z,41.30
2023-01-13T09:56:54.947Z,37.47
2023-01-13T09:59:17.556Z,45.30
2023-01-13T10:02:13.785Z,38.38
2023-01-13T10:04:36.546Z,37.35
2023-01-13T10:07:03.756Z,39.77
2023-01-13T10:09:47.419Z,41.85
2023-01-13T10:12:43.882Z,41.42
2023-01-13T10:15:13.542Z,40.08
2023-01-13T10:17:52.919Z,39.10
2023-01-13T10:20:46.979Z,36.27
2023-01-13T10:23:28.870Z,37.88
2023-01-13T10:26:26.968Z,36.33
2023-01-13T10:28:57.122Z,33.25
2023-01-13T10:31:22.179Z,34.40
2023-01-13T10:34:04.279Z,36.93
2023-01-13T10:36:27.524Z,33.42
2023-01-13T10:38:50.884Z,35.10
2023-01-13T10:41:17.040Z,36.17
2023-01-13T10:43:57.084Z,36.72
2023-01-13T10:46:21.004Z,34.80
2023-01-13T10:49:23.087Z,32.13
2023-01-13T10:51:46.388Z,31.90
2023-01-13T10:54:12.844Z,33.97
2023-01-13T10:56:35.608Z,32.28
2023-01-13T10:59:27.771Z,36.20
2023-01-13T11:02:30.745Z,33.25
2023-01-13T11:04:53.809Z,33.63
2023-01-13T11:07:38.581Z,31.45
2023-01-13T11:10:14.132Z,32.00
2023-01-13T11:13:02.296Z,29.90
2023-01-13T11:15:45.566Z,31.65
2023-01-13T11:18:18.228Z,36.15
2023-01-13T11:20:43.987Z,33.88
2023-01-13T11:23:34.322Z,36.25
2023-01-13T11:26:06.825Z,35.43
2023-01-13T11:28:47.453Z,37.05
2023-01-13T11:31:16.929Z,37.50
2023-01-13T11:33:52.857Z,37.65
2023-01-13T11:36:24.645Z,37.45
2023-01-13T11:39:18.468Z,40.73
2023-01-13T11:41:43.633Z,38.35
2023-01-13T11:44:49.944Z,37.85
2023-01-13T11:47:14.025Z,41.28
2023-01-13T11:49:38.727Z,36.83
2023-01-13T11:52:23.664Z,40.77
2023-01-13T11:54:56.485Z,41.92
2023-01-13T11:58:04.280Z,38.45
2023-01-13T12:00:51.268Z,40.10
2023-01-13T12:03:17.337Z,40.80
2023-01-13T12:05:48.431Z,39.63
2023-01-13T12:08:19.072Z,39.30
2023-01-13T12:10:56.523Z,39.60
2023-01-13T12:13:42.675Z,39.42
2023-01-13T12:16:26.274Z,37.70
2023-01-13T12:18:51.890Z,38.77
2023-01-13T12:21:30.280Z,38.75
2023-01-13T12:23:59.905Z,42.92
2023-01-13T12:26:23.804Z,37.22
2023-01-13T12:28:54.877Z,43.47
2023-01-13T12:31:19.600Z,39.67
2023-01-13T12:33:44.980Z,38.13
2023-01-13T12:36:28.562Z,39.75
2023-01-13T12:39:26.579Z,40.05
2023-01-13T12:42:28.271Z,40.35
2023-01-13T12:45:06.142Z,37.60
2023-01-13T12:47:41.516Z,35.80
2023-01-13T12:50:23.416Z,34.42
2023-01-13T12:52:46.393Z,40.50
2023-01-13T12:55:14.590Z,37.60
2023-01-13T12:57:37.761Z,40.13
2023-01-13T13:00:04.582Z,38.42
2023-01-13T13:02:30.671Z,37.58
2023-01-13T13:04:56.577Z,34.42
2023-01-13T13:07:43.625Z,35.47
2023-01-13T13:10:24.571Z,38.47
2023-01-13T13:13:13.247Z,39.60
2023-01-13T13:15:37.146Z,37.60
2023-01-13T13:17:59.926Z,35.35
2023-01-13T13:21:03.614Z,36.58
2023-01-13T13:23:54.884Z,37.07
2023-01-13T13:26:20.349Z,36.88
2023-01-13T13:29:07.460Z,34.58
2023-01-13T13:31:45.035Z,37.13
2023-01-13T13:34:25.047Z,35.60
2023-01-13T13:37:05.496Z,35.63
2023-01-13T13:39:50.480Z,33.97
2023-01-13T13:42:39.322Z,31.63
2023-01-13T13:45:25.883Z,33.60
2023-01-13T13:47:49.009Z,31.90
2023-01-13T13:50:20.835Z,31.87
2023-01-13T13:52:54.335Z,33.15
2023-01-13T13:55:20.185Z,32.28
2023-01-13T13:57:46.744Z,28.25
2023-01-13T14:00:32.060Z,30.27
2023-01-13T14:03:01.574Z,25.87
2023-01-13T14:05:31.512Z,30.02
2023-01-13T14:08:01.852Z,28.88
2023-01-13T14:10:39.947Z,31.80
2023-01-13T14:13:33.336Z,28.65
2023-01-13T14:15:58.410Z,32.67
2023-01-13T14:18:21.976Z,35.08
2023-01-13T14:20:53.881Z,40.13
2023-01-13T14:23:18.151Z,29.33
2023-01-13T14:25:47.978Z,32.65
2023-01-13T14:28:13.575Z,28.67
2023-01-13T14:30:40.827Z,29.90
2023-01-13T14:33:03.667Z,34.47
2023-01-13T14:35:26.299Z,32.45
2023-01-13T14:37:50.564Z,35.47
2023-01-13T14:40:49.591Z,35.10
2023-01-13T14:43:16.282Z,35.55
2023-01-13T14:45:53.722Z,30.35
2023-01-13T14:48:16.330Z,34.83
2023-01-13T14:50:39.068Z,35.85
2023-01-13T14:53:01.936Z,33.27
2023-01-13T14:55:27.662Z,34.92
2023-01-13T14:57:50.511Z,34.33
2023-01-13T15:00:16.340Z,33.70
2023-01-13T15:02:42.794Z,37.67
2023-01-13T15:05:17.433Z,36.57
2023-01-13T15:07:40.178Z,36.42
2023-01-13T15:10:04.715Z,41.13
2023-01-13T15:12:42.037Z,37.03
2023-01-13T15:15:19.131Z,36.85
2023-01-13T15:17:43.396Z,38.47
2023-01-13T15:20:13.333Z,38.70
2023-01-13T15:22:37.721Z,42.25
2023-01-13T15:25:00.303Z,41.28
2023-01-13T15:27:26.136Z,40.40
2023-01-13T15:29:48.834Z,38.53
2023-01-13T15:32:19.389Z,41.70
2023-01-13T15:34:41.953Z,43.97
2023-01-13T15:37:04.717Z,43.40
2023-01-13T15:39:27.809Z,43.00
2023-01-13T15:42:09.466Z,39.70
2023-01-13T15:44:50.974Z,50.63
2023-01-13T15:47:14.830Z,50.88
2023-01-13T15:49:43.269Z,43.67
2023-01-13T15:52:18.242Z,57.63
2023-01-13T15:54:40.932Z,69.00
2023-01-13T15:57:03.603Z,65.28
2023-01-13T15:59:27.575Z,49.13
2023-01-13T16:01:50.297Z,51.97
2023-01-13T16:04:12.991Z,65.90
2023-01-13T16:06:37.261Z,50.07
2023-01-13T16:08:59.980Z,50.20
2023-01-13T16:11:22.604Z,55.88
2023-01-13T16:13:45.352Z,56.88
2023-01-13T16:16:17.979Z,60.95
2023-01-13T16:18:40.996Z,65.03
2023-01-13T16:21:03.619Z,62.50
2023-01-13T16:23:26.277Z,72.78
2023-01-13T16:25:49.949Z,64.72
2023-01-13T16:28:21.437Z,58.05
2023-01-13T16:30:44.085Z,61.97
2023-01-13T16:33:06.785Z,64.38
2023-01-13T16:35:32.075Z,53.58
2023-01-13T16:37:58.440Z,52.00
2023-01-13T16:40:31.478Z,50.88
2023-01-13T16:42:54.137Z,45.40
2023-01-13T16:45:17.489Z,48.42
2023-01-13T16:47:40.693Z,48.65
2023-01-13T16:50:03.926Z,50.10
2023-01-13T16:52:28.868Z,50.63
2023-01-13T16:54:51.467Z,51.37
2023-01-13T16:57:14.504Z,50.55
2023-01-13T16:59:37.102Z,55.47
2023-01-13T17:01:59.774Z,54.15
2023-01-13T17:04:23.619Z,55.15
2023-01-13T17:06:52.437Z,54.70
2023-01-13T17:09:21.179Z,57.92
2023-01-13T17:11:43.983Z,48.78
2023-01-13T17:14:18.581Z,46.22
2023-01-13T17:16:42.356Z,48.00
2023-01-13T17:19:05.187Z,46.27
2023-01-13T17:21:27.858Z,49.63
2023-01-13T17:23:51.680Z,43.70
2023-01-13T17:26:37.190Z,45.28
2023-01-13T17:29:01.341Z,48.30
2023-01-13T17:31:23.960Z,39.77
2023-01-13T17:33:46.688Z,44.67
2023-01-13T17:36:09.703Z,46.15
2023-01-13T17:38:32.378Z,45.13
2023-01-13T17:40:55.173Z,43.45
2023-01-13T17:43:17.780Z,48.83
2023-01-13T17:45:41.338Z,44.03
2023-01-13T17:48:05.122Z,45.58
2023-01-13T17:50:32.566Z,48.85
2023-01-13T17:52:55.514Z,48.90
2023-01-13T17:55:18.093Z,44.93
2023-01-13T17:57:40.783Z,43.65
2023-01-13T18:00:05.262Z,48.72
2023-01-13T18:02:35.025Z,47.53
2023-01-13T18:04:57.627Z,47.65
2023-01-13T18:07:20.461Z,47.33
2023-01-13T18:09:43.361Z,47.72
2023-01-13T18:12:06.576Z,42.67
2023-01-13T18:14:29.233Z,45.83
2023-01-13T18:16:52.396Z,45.22
2023-01-13T18:19:33.658Z,49.00
2023-01-13T18:22:15.338Z,46.13
2023-01-13T18:24:56.064Z,52.63
2023-01-13T18:27:26.592Z,43.25
2023-01-13T18:29:52.643Z,48.45
2023-01-13T18:32:15.713Z,47.43
2023-01-13T18:34:39.338Z,49.22
2023-01-13T18:37:02.394Z,53.80
2023-01-13T18:39:25.072Z,59.50
2023-01-13T18:42:06.329Z,62.20
2023-01-13T18:44:28.961Z,61.00
2023-01-13T18:46:51.832Z,55.85
2023-01-13T18:49:14.729Z,55.33
2023-01-13T18:51:37.788Z,52.45
2023-01-13T18:54:03.114Z,53.78
2023-01-13T18:56:25.853Z,48.40
2023-01-13T18:58:53.373Z,49.22
2023-01-13T19:01:16.521Z,50.30
2023-01-13T19:03:39.556Z,53.38
2023-01-13T19:06:04.847Z,57.65
2023-01-13T19:08:27.528Z,60.40
2023-01-13T19:10:52.864Z,69.57
2023-01-13T19:13:16.722Z,70.88
2023-01-13T19:15:39.467Z,72.50
2023-01-13T19:18:02.370Z,68.63
2023-01-13T19:20:25.421Z,77.77
2023-01-13T19:22:54.047Z,67.90
2023-01-13T19:25:16.796Z,66.93
2023-01-13T19:27:39.924Z,69.60
2023-01-13T19:30:04.144Z,66.82
2023-01-13T19:32:27.859Z,64.40
2023-01-13T19:34:51.303Z,65.88
2023-01-13T19:37:14.119Z,59.45
2023-01-13T19:39:37.375Z,62.30
2023-01-13T19:42:19.538Z,63.55
2023-01-13T19:45:01.254Z,57.70
2023-01-13T19:47:24.147Z,57.67
2023-01-13T19:49:47.369Z,63.67
2023-01-13T19:52:11.270Z,60.05
2023-01-13T19:54:33.913Z,54.33
2023-01-13T19:56:56.938Z,54.17
2023-01-13T19:59:22.273Z,57.00
2023-01-13T20:01:45.718Z,53.28
2023-01-13T20:04:14.383Z,59.70
2023-01-13T20:06:37.889Z,62.10
2023-01-13T20:09:00.550Z,61.70
2023-01-13T20:11:23.314Z,61.40
2023-01-13T20:13:46.092Z,63.08
2023-01-13T20:16:09.547Z,58.88
2023-01-13T20:18:36.567Z,59.70
2023-01-13T20:21:04.039Z,58.87
2023-01-13T20:23:26.847Z,57.92
2023-01-13T20:25:49.465Z,67.93
2023-01-13T20:28:12.310Z,74.53
2023-01-13T20:30:35.043Z,57.72
2023-01-13T20:32:57.680Z,60.97
2023-01-13T20:35:20.626Z,55.70
2023-01-13T20:37:43.630Z,55.97
2023-01-13T20:40:07.661Z,57.65
2023-01-13T20:42:39.822Z,56.97
2023-01-13T20:45:02.576Z,56.90
2023-01-13T20:47:26.204Z,65.38
2023-01-13T20:49:49.789Z,65.47
2023-01-13T20:52:13.056Z,66.47
2023-01-13T20:54:40.018Z,66.13
2023-01-13T20:57:03.730Z,66.07
2023-01-13T20:59:26.617Z,58.78
2023-01-13T21:01:49.238Z,58.58
2023-01-13T21:04:12.286Z,53.50
2023-01-13T21:06:35.223Z,52.78
2023-01-13T21:08:58.224Z,55.70
2023-01-13T21:11:45.125Z,56.33
2023-01-13T21:14:45.838Z,54.10
2023-01-13T21:17:28.810Z,54.80
2023-01-13T21:19:52.729Z,60.05
2023-01-13T21:22:15.604Z,56.47
2023-01-13T21:24:38.734Z,57.88
2023-01-13T21:27:01.340Z,59.92
2023-01-13T21:29:24.065Z,60.78
2023-01-13T21:31:46.825Z,68.85
2023-01-13T21:34:10.533Z,67.93
2023-01-13T21:36:33.333Z,69.20
2023-01-13T21:38:58.235Z,80.75
2023-01-13T21:41:41.052Z,82.32
2023-01-13T21:44:22.442Z,80.15
2023-01-13T21:47:03.651Z,83.00
2023-01-13T21:49:26.425Z,77.40
2023-01-13T21:51:49.091Z,73.47
2023-01-13T21:54:11.686Z,75.97
2023-01-13T21:56:34.245Z,71.65
2023-01-13T21:58:57.358Z,64.07
2023-01-13T22:01:20.023Z,63.33
2023-01-13T22:04:01.752Z,61.20
2023-01-13T22:06:24.793Z,58.40
2023-01-13T22:08:47.590Z,63.03
2023-01-13T22:11:11.622Z,55.20
2023-01-13T22:13:53.189Z,56.55
2023-01-13T22:16:15.985Z,60.55
2023-01-13T22:18:38.837Z,62.58
2023-01-13T22:21:22.411Z,59.53
2023-01-13T22:23:45.665Z,56.50
2023-01-13T22:26:11.255Z,61.83
2023-01-13T22:28:52.101Z,61.63
2023-01-13T22:31:18.313Z,58.83
2023-01-13T22:33:41.672Z,63.28
2023-01-13T22:36:05.207Z,61.93
2023-01-13T22:38:27.971Z,65.05
2023-01-13T22:41:03.015Z,67.03
2023-01-13T22:43:27.772Z,68.45
2023-01-13T22:46:00.910Z,71.80
2023-01-13T22:48:23.588Z,69.23
2023-01-13T22:50:46.271Z,68.38
2023-01-13T22:53:08.855Z,70.15
2023-01-13T22:55:31.462Z,66.38
2023-01-13T22:57:54.385Z,69.55
2023-01-13T23:00:21.104Z,64.80
2023-01-13T23:02:43.766Z,71.00
2023-01-13T23:05:06.614Z,61.53
2023-01-13T23:07:29.419Z,66.95
2023-01-13T23:09:53.701Z,64.18
2023-01-13T23:12:16.288Z,65.47
2023-01-13T23:14:38.834Z,63.30
2023-01-13T23:17:01.523Z,69.45
2023-01-13T23:19:24.316Z,64.20
2023-01-13T23:21:46.985Z,65.60
2023-01-13T23:24:10.081Z,67.50
2023-01-13T23:26:33.466Z,71.45
2023-01-13T23:29:07.262Z,73.80
2023-01-13T23:31:30.287Z,68.88
2023-01-13T23:33:52.873Z,65.05
2023-01-13T23:36:19.363Z,69.33
2023-01-13T23:38:43.199Z,63.35
2023-01-13T23:41:11.909Z,62.63
2023-01-13T23:43:34.879Z,66.65
2023-01-13T23:46:04.672Z,68.00
2023-01-13T23:48:27.473Z,68.43
2023-01-13T23:50:58.542Z,68.72
2023-01-13T23:53:21.153Z,69.03
2023-01-13T23:55:43.662Z,64.15
2023-01-13T23:58:06.218Z,67.32
